Time;durP1;ratioP1;P1;durP2;ratioP2;P2;SDS_P1;SDS_P2;PMS_P1;PMS_P2;Temp;Humidity;BMP_temperature;BMP_pressure;BME280_temperature;BME280_humidity;BME280_pressure;Samples;Min_cycle;Max_cycle;Signal;HPM_P1;HPM_P2
2022/12/17 13:07:29;;;;;;;6.92;2.27;;;;;;;16.41;55.35;101919.52;1881839;75;21024;-58
2022/12/17 13:09:59;;;;;;;8.38;3.65;;;;;;;16.33;55.51;101912.38;1885258;74;21107;-57
2022/12/17 13:12:36;;;;;;;6.97;2.60;;;;;;;16.26;55.65;101902.94;1897268;74;21719;-57
2022/12/17 13:15:11;;;;;;;6.83;2.20;;;;;;;16.18;55.84;101903.29;1898878;74;21625;-57
2022/12/17 13:17:42;;;;;;;4.40;2.17;;;;;;;16.11;56.03;101902.69;1897103;74;21118;-55
2022/12/17 13:20:26;;;;;;;6.53;2.20;;;;;;;16.05;56.27;101906.95;1897860;74;21039;-57
2022/12/17 13:22:55;;;;;;;;;;;;;;;16.01;56.24;101900.05;1903703;74;21483;-57
2022/12/17 13:25:24;;;;;;;4.85;2.00;;;;;;;15.94;56.20;101903.42;1887787;74;20110;-57
2022/12/17 13:27:53;;;;;;;7.40;2.98;;;;;;;15.85;56.40;101901.63;1907603;74;21113;-56
2022/12/17 13:30:31;;;;;;;8.05;2.75;;;;;;;15.76;56.57;101911.70;1905800;74;21435;-56
2022/12/17 13:33:31;;;;;;;16.82;7.50;;;;;;;15.70;56.71;101906.62;1899106;74;21020;-56
2022/12/17 13:36:19;;;;;;;11.05;5.25;;;;;;;15.64;56.84;101907.75;1890506;74;21044;-56
2022/12/17 13:39:18;;;;;;;10.40;3.85;;;;;;;15.56;56.93;101905.86;1895161;74;21016;-56
2022/12/17 13:41:47;;;;;;;7.12;3.00;;;;;;;15.50;57.01;101911.91;1890604;74;21072;-56
2022/12/17 13:44:18;;;;;;;5.90;2.52;;;;;;;15.40;57.30;101904.76;1876094;75;21097;-56
2022/12/17 13:46:49;;;;;;;5.83;2.12;;;;;;;15.32;57.51;101905.07;1870377;75;21087;-57
2022/12/17 13:49:24;;;;;;;5.10;2.02;;;;;;;15.27;57.57;101902.20;1872634;75;21059;-57
2022/12/17 13:52:08;;;;;;;10.60;2.42;;;;;;;15.20;57.67;101901.61;1865450;75;21125;-56
2022/12/17 13:54:37;;;;;;;5.47;1.50;;;;;;;15.12;57.85;101895.73;1866386;75;21114;-57
2022/12/17 13:57:11;;;;;;;3.75;1.90;;;;;;;15.04;58.00;101895.56;1859763;75;21201;-57
2022/12/17 13:59:40;;;;;;;6.85;2.02;;;;;;;14.99;58.10;101898.85;1864970;75;21017;-57
2022/12/17 14:02:24;;;;;;;3.25;1.90;;;;;;;14.92;58.15;101888.11;1850639;75;21039;-56
2022/12/17 14:04:53;;;;;;;;;;;;;;;14.85;58.22;101886.14;1872695;75;21086;-57
2022/12/17 14:07:23;;;;;;;4.75;2.00;;;;;;;14.81;58.22;101895.14;1876213;75;20119;-56
2022/12/17 14:09:52;;;;;;;5.65;2.50;;;;;;;14.77;58.27;101897.96;1869958;75;21097;-56
2022/12/17 14:12:24;;;;;;;4.03;2.30;;;;;;;14.71;58.44;101897.73;1877214;75;21464;-57
2022/12/17 14:14:59;;;;;;;9.85;2.52;;;;;;;14.67;58.58;101898.31;1886859;75;21145;-57
2022/12/17 14:17:30;;;;;;;6.58;2.50;;;;;;;14.66;58.66;101906.31;1899384;75;21048;-56
2022/12/17 14:20:20;;;;;;;4.83;2.75;;;;;;;14.64;58.71;101893.58;1899634;75;21482;-56
2022/12/17 14:22:57;;;;;;;5.37;1.90;;;;;;;14.62;58.71;101890.98;1896775;75;21029;-57
2022/12/17 14:25:40;;;;;;;6.53;2.45;;;;;;;14.59;58.77;101888.47;1899229;75;21480;-57
2022/12/17 14:28:25;;;;;;;5.95;2.00;;;;;;;14.53;58.91;101892.62;1900834;75;21052;-57
2022/12/17 14:31:05;;;;;;;4.95;2.58;;;;;;;14.48;59.04;101890.63;1900903;75;21080;-56
2022/12/17 14:33:36;;;;;;;16.65;6.53;;;;;;;14.46;59.12;101884.52;1904918;75;21036;-57
2022/12/17 14:36:08;;;;;;;6.90;2.95;;;;;;;14.42;59.19;101883.77;1898846;75;21165;-56
2022/12/17 14:38:37;;;;;;;5.90;3.00;;;;;;;14.43;59.22;101874.88;1850395;76;21165;-56
2022/12/17 14:44:00;;;;;;;6.62;2.30;;;;;;;14.37;59.35;101872.94;1898693;75;21092;-57
2022/12/17 14:46:30;;;;;;;6.80;2.70;;;;;;;14.36;59.30;101871.20;1901315;75;21067;-57
2022/12/17 14:49:04;;;;;;;6.72;2.35;;;;;;;14.30;59.45;101866.98;1905564;75;21102;-57
2022/12/17 14:51:39;;;;;;;3.98;1.92;;;;;;;14.26;59.54;101866.23;1903581;75;21024;-57
2022/12/17 14:54:24;;;;;;;6.70;2.42;;;;;;;14.24;59.58;101867.22;1898662;75;21052;-57
2022/12/17 14:56:58;;;;;;;4.40;2.65;;;;;;;14.21;59.72;101866.86;1903080;75;21048;-57
2022/12/17 14:59:39;;;;;;;5.60;2.75;;;;;;;14.18;59.79;101862.98;1903795;75;21028;-57
2022/12/17 15:02:22;;;;;;;3.58;2.17;;;;;;;14.18;59.78;101858.16;1897992;75;21124;-57
2022/12/17 15:04:52;;;;;;;7.08;2.72;;;;;;;14.16;59.81;101851.58;1898796;75;21268;-57
2022/12/17 15:07:24;;;;;;;4.70;2.55;;;;;;;14.14;59.84;101856.08;1896415;75;21204;-57
2022/12/17 15:09:54;;;;;;;4.78;1.77;;;;;;;14.11;59.92;101854.88;1899597;75;21065;-57
2022/12/17 15:12:25;;;;;;;4.03;2.20;;;;;;;14.07;60.00;101850.59;1896339;75;21102;-57
2022/12/17 15:14:54;;;;;;;3.55;2.10;;;;;;;14.04;60.05;101849.40;1899565;75;21544;-57
2022/12/17 15:17:23;;;;;;;9.60;3.12;;;;;;;14.02;60.11;101852.56;1897635;75;21191;-57
2022/12/17 15:19:51;;;;;;;8.80;3.17;;;;;;;13.95;60.36;101850.58;1902777;75;21130;-57
2022/12/17 15:22:20;;;;;;;16.32;5.75;;;;;;;13.87;60.72;101842.92;1900243;75;21157;-57
2022/12/17 15:24:49;;;;;;;15.45;5.47;;;;;;;13.82;60.94;101843.53;1896985;75;21000;-57
2022/12/17 15:27:18;;;;;;;16.93;7.25;;;;;;;13.77;61.17;101836.67;1902119;75;21051;-57
2022/12/17 15:29:47;;;;;;;12.95;6.03;;;;;;;13.69;61.45;101838.27;1897018;75;21548;-57
2022/12/17 15:32:23;;;;;;;8.05;4.28;;;;;;;13.67;61.52;101837.45;1904150;75;21001;-57
2022/12/17 15:34:52;;;;;;;7.58;3.47;;;;;;;13.64;61.81;101843.70;1900756;75;21427;-57
2022/12/17 15:37:21;;;;;;;11.40;4.22;;;;;;;13.65;61.93;101837.97;1894033;75;21157;-57
2022/12/17 15:39:50;;;;;;;5.53;3.20;;;;;;;13.62;62.07;101841.57;1873768;75;21109;-57
2022/12/17 15:45:06;;;;;;;9.78;4.03;;;;;;;13.58;62.17;101845.71;1902063;75;21032;-57
2022/12/17 15:47:35;;;;;;;5.55;3.12;;;;;;;13.55;62.24;101845.80;1897470;75;21129;-57
2022/12/17 15:50:05;;;;;;;8.78;3.90;;;;;;;13.55;62.25;101843.16;1899088;75;21038;-57
2022/12/17 15:52:34;;;;;;;7.83;3.42;;;;;;;13.52;62.35;101844.14;1900398;75;21093;-56
2022/12/17 15:55:02;;;;;;;7.95;3.40;;;;;;;13.53;62.42;101850.28;1905352;75;21098;-57
2022/12/17 15:57:31;;;;;;;7.58;3.27;;;;;;;13.50;62.34;101853.45;1897856;75;21162;-57
2022/12/17 16:00:00;;;;;;;5.78;2.05;;;;;;;13.49;62.35;101849.06;1877091;75;21046;-57
2022/12/17 16:02:29;;;;;;;3.42;1.92;;;;;;;13.52;62.46;101857.37;1870754;75;21090;-57
2022/12/17 16:04:57;;;;;;;3.85;1.92;;;;;;;13.53;62.48;101856.91;1896097;75;21103;-57
2022/12/17 16:07:26;;;;;;;5.70;2.08;;;;;;;13.59;62.43;101856.69;1883872;75;21652;-56
2022/12/17 16:09:55;;;;;;;8.03;3.75;;;;;;;13.65;62.30;101859.14;1891813;75;21051;-59
2022/12/17 16:12:24;;;;;;;8.05;3.12;;;;;;;13.68;62.12;101857.70;1898650;75;21098;-57
2022/12/17 16:14:53;;;;;;;5.97;2.45;;;;;;;13.70;62.11;101856.75;1882669;75;21075;-57
2022/12/17 16:17:22;;;;;;;5.60;3.10;;;;;;;13.72;62.08;101852.70;1883336;75;21108;-57
2022/12/17 16:19:51;;;;;;;3.50;2.25;;;;;;;13.72;62.00;101850.05;1897281;75;21476;-57
2022/12/17 16:22:20;;;;;;;14.70;2.90;;;;;;;13.68;62.01;101853.73;1906226;75;21073;-57
2022/12/17 16:24:51;;;;;;;7.97;3.17;;;;;;;13.61;62.08;101854.84;1904279;75;21051;-57
2022/12/17 16:27:20;;;;;;;7.22;3.47;;;;;;;13.55;62.06;101853.74;1905638;75;21013;-57
2022/12/17 16:29:49;;;;;;;9.90;4.58;;;;;;;13.46;62.26;101850.50;1905211;75;21115;-58
2022/12/17 16:32:18;;;;;;;13.32;3.98;;;;;;;13.35;62.51;101849.11;1905500;75;21088;-57
2022/12/17 16:34:47;;;;;;;11.50;4.37;;;;;;;13.24;62.71;101846.34;1904668;75;21044;-57
2022/12/17 16:37:16;;;;;;;6.20;2.92;;;;;;;13.21;62.89;101837.64;1901953;75;21170;-57
2022/12/17 16:39:45;;;;;;;10.13;3.45;;;;;;;13.17;62.96;101837.31;1904786;75;21020;-57
2022/12/17 16:42:14;;;;;;;6.08;3.33;;;;;;;13.13;63.14;101841.83;1897507;75;21064;-57
2022/12/17 16:44:42;;;;;;;5.08;3.47;;;;;;;13.10;63.09;101846.78;1902786;75;21038;-57
2022/12/17 16:47:11;;;;;;;12.55;4.47;;;;;;;13.05;63.27;101843.87;1902420;75;21072;-56
2022/12/17 16:49:40;;;;;;;8.53;4.15;;;;;;;13.02;63.30;101847.48;1900742;75;21031;-57
2022/12/17 16:52:09;;;;;;;12.30;4.45;;;;;;;12.94;63.38;101845.06;1902104;75;21095;-57
2022/12/17 16:54:38;;;;;;;8.85;4.50;;;;;;;12.90;63.47;101837.29;1904469;75;21105;-57
2022/12/17 16:57:07;;;;;;;15.28;5.22;;;;;;;12.85;63.80;101849.77;1892762;75;21035;-57
2022/12/17 16:59:35;;;;;;;8.65;4.45;;;;;;;12.80;63.88;101845.08;1898002;75;21077;-56
2022/12/17 17:02:04;;;;;;;8.43;4.12;;;;;;;12.72;64.07;101836.92;1902243;75;21114;-57
2022/12/17 17:04:33;;;;;;;8.88;4.45;;;;;;;12.70;64.36;101837.44;1891199;75;21060;-57
2022/12/17 17:07:02;;;;;;;9.25;3.75;;;;;;;12.69;64.39;101837.05;1896743;75;21030;-56
2022/12/17 17:09:31;;;;;;;4.95;3.22;;;;;;;12.70;64.32;101831.30;1869979;75;21174;-57
2022/12/17 17:12:00;;;;;;;11.97;4.83;;;;;;;12.71;64.26;101832.58;1893761;75;21110;-57
2022/12/17 17:14:29;;;;;;;11.57;4.58;;;;;;;12.71;64.31;101835.22;1888648;75;21024;-57
2022/12/17 17:16:58;;;;;;;6.87;3.47;;;;;;;12.69;64.36;101829.11;1904609;75;21068;-56
2022/12/17 17:19:27;;;;;;;15.08;3.87;;;;;;;12.65;64.55;101827.48;1857527;77;21072;-57
2022/12/17 17:21:56;;;;;;;5.25;3.02;;;;;;;12.70;64.59;101824.69;1856048;76;21117;-57
2022/12/17 17:24:25;;;;;;;7.25;3.12;;;;;;;12.70;64.57;101818.94;1901731;75;21103;-56
2022/12/17 17:26:55;;;;;;;6.22;2.42;;;;;;;12.72;64.62;101813.14;1895441;75;21020;-56
2022/12/17 17:29:24;;;;;;;5.20;2.10;;;;;;;12.74;64.64;101813.99;1902825;75;21596;-56
2022/12/17 17:31:53;;;;;;;3.85;1.02;;;;;;;12.82;64.56;101815.06;1901144;75;21029;-57
2022/12/17 17:34:21;;;;;;;4.53;1.95;;;;;;;12.91;64.45;101817.86;1898631;75;21117;-57
2022/12/17 17:36:50;;;;;;;4.00;2.00;;;;;;;13.01;64.28;101818.45;1899244;75;21114;-57
2022/12/17 17:39:19;;;;;;;9.00;2.52;;;;;;;13.08;64.06;101815.55;1895561;75;21020;-57
2022/12/17 17:41:48;;;;;;;5.05;2.58;;;;;;;13.14;63.87;101814.48;1902722;75;20987;-57
2022/12/17 17:44:17;;;;;;;9.65;2.10;;;;;;;13.19;63.68;101813.89;1904015;75;21097;-57
2022/12/17 17:46:46;;;;;;;6.90;2.40;;;;;;;13.21;63.55;101814.70;1899853;75;21134;-57
2022/12/17 17:49:15;;;;;;;4.10;2.27;;;;;;;13.25;63.40;101806.20;1903718;75;21024;-57
2022/12/17 17:51:44;;;;;;;3.47;1.67;;;;;;;13.28;63.33;101806.11;1903465;75;21076;-57
2022/12/17 17:54:13;;;;;;;8.13;2.22;;;;;;;13.33;63.22;101809.48;1900470;75;21783;-57
2022/12/17 17:56:43;;;;;;;5.65;1.92;;;;;;;13.33;63.09;101804.19;1904501;75;21032;-57
2022/12/17 17:59:16;;;;;;;3.67;2.00;;;;;;;13.35;63.03;101809.44;1898242;75;21095;-58
2022/12/17 18:01:48;;;;;;;6.35;1.82;;;;;;;13.35;62.99;101806.32;1904096;75;21574;-56
2022/12/17 18:04:19;;;;;;;4.50;1.65;;;;;;;13.32;62.96;101809.09;1906378;75;21160;-56
2022/12/17 18:06:48;;;;;;;6.22;2.33;;;;;;;13.32;62.90;101810.41;1896263;75;21056;-56
2022/12/17 18:09:19;;;;;;;4.67;1.90;;;;;;;13.32;62.83;101809.95;1900124;75;21138;-57
2022/12/17 18:11:48;;;;;;;5.62;2.10;;;;;;;13.29;62.81;101803.86;1896156;75;21016;-56
2022/12/17 18:14:17;;;;;;;6.30;2.02;;;;;;;13.32;62.71;101805.12;1903745;75;21241;-56
2022/12/17 18:16:48;;;;;;;3.45;1.77;;;;;;;13.36;62.55;101804.09;1899044;75;21177;-56
2022/12/17 18:19:19;;;;;;;7.22;2.33;;;;;;;13.38;62.42;101803.58;1903648;75;21187;-56
2022/12/17 18:21:48;;;;;;;5.47;2.62;;;;;;;13.39;62.25;101803.11;1897941;75;21124;-56
2022/12/17 18:24:24;;;;;;;3.70;1.70;;;;;;;13.39;62.08;101806.65;1897800;75;21166;-56
2022/12/17 18:26:51;;;;;;;7.12;2.15;;;;;;;13.40;61.94;101800.42;1868828;75;21460;-57
2022/12/17 18:29:25;;;;;;;5.10;1.90;;;;;;;13.45;61.79;101801.14;1891262;75;21101;-56
2022/12/17 18:31:55;;;;;;;3.05;1.55;;;;;;;13.48;61.67;101806.34;1900422;75;21036;-56
2022/12/17 18:34:30;;;;;;;5.53;1.80;;;;;;;13.48;61.55;101810.30;1894616;75;21035;-57
2022/12/17 18:36:55;;;;;;;2.92;1.25;;;;;;;13.49;61.49;101812.02;1896339;75;21027;-57
2022/12/17 18:39:25;;;;;;;4.22;1.60;;;;;;;13.49;61.41;101813.34;1903475;75;21037;-56
2022/12/17 18:44:42;;;;;;;5.00;1.52;;;;;;;13.49;61.25;101814.66;1900519;75;21117;-56
2022/12/17 18:47:11;;;;;;;2.55;1.95;;;;;;;13.50;61.12;101808.90;1904591;75;21470;-56
2022/12/17 18:49:40;;;;;;;3.60;1.87;;;;;;;13.51;61.04;101799.59;1890902;75;21087;-56
2022/12/17 18:52:10;;;;;;;5.42;1.80;;;;;;;13.48;60.91;101797.08;1901739;75;21142;-57
2022/12/17 18:57:28;;;;;;;3.50;1.75;;;;;;;13.44;60.91;101815.27;1886347;75;21030;-57
2022/12/17 18:59:59;;;;;;;4.55;1.82;;;;;;;13.44;60.92;101822.34;1882423;76;21016;-57
2022/12/17 19:02:29;;;;;;;8.48;2.72;;;;;;;13.45;60.82;101824.95;1872918;76;21136;-57
2022/12/17 19:04:58;;;;;;;3.33;1.85;;;;;;;13.47;60.74;101829.73;1850657;77;21051;-59
2022/12/17 19:07:27;;;;;;;4.05;2.02;;;;;;;13.46;60.71;101834.63;1868557;77;21114;-59
2022/12/17 19:09:55;;;;;;;4.55;2.22;;;;;;;13.49;60.64;101835.83;1888418;75;21034;-59
2022/12/17 19:12:24;;;;;;;5.58;1.65;;;;;;;13.51;60.54;101845.05;1866910;77;21044;-59
2022/12/17 19:14:53;;;;;;;5.33;1.90;;;;;;;13.53;60.48;101850.28;1876764;76;21606;-59
2022/12/17 19:17:22;;;;;;;6.42;2.75;;;;;;;13.54;60.41;101849.35;1865478;76;21025;-60
2022/12/17 19:19:51;;;;;;;16.00;5.97;;;;;;;13.53;60.35;101850.28;1864532;75;21143;-59
2022/12/17 19:22:20;;;;;;;12.28;5.72;;;;;;;13.51;60.34;101850.34;1864412;76;21032;-59
2022/12/17 19:24:52;;;;;;;13.10;4.85;;;;;;;13.46;60.33;101853.59;1864239;75;21029;-59
2022/12/17 19:27:20;;;;;;;16.30;6.87;;;;;;;13.38;60.39;101847.23;1863699;76;21056;-59
2022/12/17 19:29:49;;;;;;;20.30;10.00;;;;;;;13.23;60.40;101845.06;1863683;76;21031;-58
2022/12/17 19:32:18;;;;;;;11.50;5.85;;;;;;;12.97;60.58;101845.44;1890178;75;21255;-59
2022/12/17 19:34:47;;;;;;;12.40;6.05;;;;;;;12.72;60.93;101845.32;1882101;76;21048;-59
2022/12/17 19:37:15;;;;;;;7.85;5.90;;;;;;;12.52;61.27;101844.59;1870831;76;21469;-59
2022/12/17 19:39:44;;;;;;;10.85;5.65;;;;;;;12.33;61.53;101840.31;1874661;76;21030;-59
2022/12/17 19:42:23;;;;;;;5.20;3.12;;;;;;;12.16;61.82;101854.86;1853412;77;21078;-59
2022/12/17 19:44:43;;;;;;;6.78;3.50;;;;;;;12.02;62.16;101844.27;1878370;76;21145;-59
2022/12/17 19:47:12;;;;;;;5.87;3.42;;;;;;;11.97;62.39;101854.97;1875303;76;21063;-59
2022/12/17 19:49:41;;;;;;;10.08;5.75;;;;;;;11.92;62.50;101851.11;1879447;76;21118;-59
2022/12/17 19:52:11;;;;;;;13.60;7.12;;;;;;;11.86;62.55;101853.00;1857079;77;21112;-60
2022/12/17 19:54:40;;;;;;;16.77;7.37;;;;;;;11.75;62.70;101859.91;1889824;75;21034;-59
2022/12/17 19:57:09;;;;;;;29.95;8.53;;;;;;;11.65;62.86;101855.30;1893596;74;21141;-59
2022/12/17 19:59:38;;;;;;;18.00;7.15;;;;;;;11.58;63.28;101855.05;1917628;74;21146;-59
2022/12/17 20:02:06;;;;;;;19.62;6.42;;;;;;;11.53;63.70;101849.90;1924654;74;21089;-60
2022/12/17 20:04:35;;;;;;;10.20;3.22;;;;;;;11.49;63.75;101848.25;1924930;74;21016;-59
2022/12/17 20:07:04;;;;;;;7.10;2.40;;;;;;;11.39;64.01;101845.42;1924331;74;21028;-59
2022/12/17 20:09:33;;;;;;;23.27;5.25;;;;;;;11.40;64.22;101843.20;1924631;74;21158;-60
2022/12/17 20:12:01;;;;;;;15.72;3.85;;;;;;;11.43;64.20;101841.80;1923821;74;21032;-60
2022/12/17 20:14:34;;;;;;;9.18;3.02;;;;;;;11.37;64.17;101843.27;1921332;74;21110;-60
2022/12/17 20:17:01;;;;;;;9.18;3.50;;;;;;;11.34;64.21;101842.02;1923120;74;21032;-60
2022/12/17 20:19:32;;;;;;;11.48;4.87;;;;;;;11.27;64.25;101836.05;1922305;74;21016;-59
2022/12/17 20:22:03;;;;;;;19.92;5.95;;;;;;;11.22;64.39;101847.16;1923182;74;21450;-60
2022/12/17 20:24:31;;;;;;;18.65;7.10;;;;;;;11.15;64.53;101835.88;1925163;74;21033;-60
2022/12/17 20:27:00;;;;;;;24.47;8.20;;;;;;;11.07;64.71;101832.57;1923962;74;21032;-60
2022/12/17 20:29:29;;;;;;;21.90;11.10;;;;;;;10.99;64.76;101826.59;1919351;74;21176;-60
2022/12/17 20:32:03;;;;;;;33.38;11.18;;;;;;;10.91;64.89;101819.33;1899952;75;21148;-60
2022/12/17 20:34:32;;;;;;;24.72;11.03;;;;;;;10.86;64.96;101811.98;1926278;74;21526;-59
2022/12/17 20:37:01;;;;;;;26.42;9.63;;;;;;;10.78;65.06;101809.52;1895584;75;21134;-60
2022/12/17 20:39:31;;;;;;;25.02;10.72;;;;;;;10.69;65.27;101810.59;1916673;75;21483;-59
2022/12/17 20:42:02;;;;;;;18.02;9.38;;;;;;;10.58;65.42;101812.60;1905411;75;21482;-59
2022/12/17 20:44:32;;;;;;;15.75;6.30;;;;;;;10.52;65.55;101819.33;1887125;75;21080;-60
2022/12/17 20:47:01;;;;;;;16.60;6.08;;;;;;;10.51;65.60;101816.27;1896656;75;21036;-57
2022/12/17 20:49:31;;;;;;;17.73;7.33;;;;;;;10.48;65.69;101818.98;1910512;75;21044;-60
2022/12/17 20:52:00;;;;;;;13.43;5.72;;;;;;;10.41;65.87;101819.09;1916575;75;21099;-59
2022/12/17 20:54:29;;;;;;;13.50;4.85;;;;;;;10.36;65.99;101818.31;1901489;75;21122;-59
2022/12/17 20:56:57;;;;;;;20.10;6.30;;;;;;;10.29;66.18;101824.60;1906861;74;21139;-59
2022/12/17 20:59:26;;;;;;;11.38;5.30;;;;;;;10.22;66.29;101819.91;1895638;75;21004;-57
2022/12/17 21:02:04;;;;;;;14.60;4.50;;;;;;;10.20;66.44;101816.44;1896620;75;21079;-59
2022/12/17 21:04:34;;;;;;;7.90;3.67;;;;;;;10.16;66.50;101817.41;1881227;75;21086;-57
2022/12/17 21:07:03;;;;;;;11.25;4.83;;;;;;;10.11;66.64;101804.78;1892155;75;21588;-60
2022/12/17 21:09:32;;;;;;;15.78;5.00;;;;;;;10.11;66.81;101797.34;1891708;76;21055;-57
2022/12/17 21:12:01;;;;;;;9.00;3.87;;;;;;;10.07;66.86;101786.01;1892034;75;21116;-58
2022/12/17 21:14:30;;;;;;;7.28;3.22;;;;;;;10.07;66.92;101791.70;1892270;76;21124;-59
2022/12/17 21:16:58;;;;;;;14.00;3.45;;;;;;;10.02;67.05;101791.34;1892212;76;21058;-57
2022/12/17 21:19:27;;;;;;;10.00;4.08;;;;;;;10.04;67.10;101803.16;1892187;76;21179;-57
2022/12/17 21:21:56;;;;;;;10.93;3.87;;;;;;;10.00;67.22;101801.50;1892064;76;21022;-57
2022/12/17 21:24:25;;;;;;;7.97;3.87;;;;;;;9.96;67.29;101811.22;1892170;76;21035;-57
2022/12/17 21:26:54;;;;;;;10.28;3.83;;;;;;;9.98;67.47;101813.81;1892165;76;21058;-58
2022/12/17 21:29:22;;;;;;;9.45;3.12;;;;;;;9.98;67.47;101805.47;1892291;76;21038;-57
2022/12/17 21:31:52;;;;;;;10.15;4.40;;;;;;;9.96;67.44;101806.37;1892075;76;21010;-57
2022/12/17 21:34:28;;;;;;;10.53;4.33;;;;;;;9.91;67.49;101807.80;1890721;76;21043;-58
2022/12/17 21:36:53;;;;;;;7.90;3.95;;;;;;;9.89;67.54;101806.96;1891121;75;21624;-57
2022/12/17 21:39:22;;;;;;;12.45;4.80;;;;;;;9.84;67.57;101812.30;1888757;76;21136;-57
2022/12/17 21:44:37;;;;;;;11.10;3.80;;;;;;;9.75;67.77;101801.09;1891705;75;21164;-58
2022/12/17 21:47:06;;;;;;;11.03;4.22;;;;;;;9.73;67.87;101805.52;1892213;75;21101;-57
2022/12/17 21:49:35;;;;;;;14.45;4.20;;;;;;;9.73;67.79;101813.41;1892295;76;21580;-57
2022/12/17 21:52:04;;;;;;;10.28;3.80;;;;;;;9.72;67.84;101816.48;1892211;76;21042;-57
2022/12/17 21:54:33;;;;;;;13.60;6.45;;;;;;;9.68;67.88;101810.84;1892305;75;21043;-57
2022/12/17 21:57:02;;;;;;;11.73;4.78;;;;;;;9.62;68.05;101801.30;1892105;76;21116;-58
2022/12/17 21:59:31;;;;;;;15.65;5.45;;;;;;;9.60;68.19;101800.47;1892127;76;21121;-57
2022/12/17 22:01:59;;;;;;;11.22;4.55;;;;;;;9.61;68.23;101794.33;1892303;76;21047;-58
2022/12/17 22:04:28;;;;;;;13.88;5.92;;;;;;;9.61;68.14;101794.33;1896170;75;21141;-57
2022/12/17 22:06:57;;;;;;;19.37;6.30;;;;;;;9.55;68.27;101794.41;1898386;75;21071;-57
2022/12/17 22:09:26;;;;;;;27.40;6.87;;;;;;;9.59;68.29;101785.60;1896409;75;21082;-58
2022/12/17 22:14:01;;;;;;;16.40;6.28;;;;;;;9.60;68.32;101797.84;1896592;75;21058;-58
2022/12/17 22:14:25;;;;;;;16.05;6.35;;;;;;;9.59;68.63;101788.23;1897115;75;21022;-57
2022/12/17 22:16:54;;;;;;;26.07;10.20;;;;;;;9.60;68.59;101796.52;1898339;75;21120;-57
2022/12/17 22:19:23;;;;;;;25.20;9.40;;;;;;;9.57;68.45;101790.02;1896852;75;21132;-57
2022/12/17 22:21:52;;;;;;;20.65;7.60;;;;;;;9.55;68.36;101793.55;1898320;75;21505;-57
2022/12/17 22:24:23;;;;;;;33.25;12.37;;;;;;;9.45;68.65;101792.41;1890115;75;21037;-57
2022/12/17 22:26:58;;;;;;;30.00;11.18;;;;;;;9.42;68.63;101795.53;1898367;75;21031;-58
2022/12/17 22:34:58;;;;;;;35.30;17.27;;;;;;;9.23;69.39;101781.39;1895006;74;21169;-56
2022/12/17 22:37:27;;;;;;;40.88;23.25;;;;;;;9.18;69.26;101784.98;1892496;74;21116;-56
2022/12/17 22:39:56;;;;;;;34.88;20.35;;;;;;;9.07;69.77;101782.11;1897179;74;21105;-47
2022/12/17 22:45:11;;;;;;;44.53;24.45;;;;;;;9.07;69.63;101773.34;1893243;76;21020;-57
2022/12/17 22:47:40;;;;;;;50.92;20.27;;;;;;;9.02;69.67;101776.52;1893319;76;21040;-58
2022/12/17 22:50:09;;;;;;;36.20;19.85;;;;;;;8.98;69.63;101770.86;1893457;76;21134;-53
2022/12/17 22:52:38;;;;;;;42.45;18.55;;;;;;;8.95;69.51;101776.18;1879280;74;21173;-54
2022/12/17 22:55:07;;;;;;;35.98;17.98;;;;;;;8.88;69.51;101767.06;1881482;74;21039;-55
2022/12/17 22:57:36;;;;;;;43.10;19.90;;;;;;;8.87;69.52;101792.03;1894078;75;21154;-53
2022/12/17 23:00:07;;;;;;;35.83;17.82;;;;;;;8.82;69.54;101778.98;1898283;75;21046;-54
2022/12/17 23:02:36;;;;;;;35.78;16.15;;;;;;;8.77;69.69;101773.38;1898302;75;21136;-55
2022/12/17 23:05:05;;;;;;;32.85;16.65;;;;;;;8.74;69.81;101784.78;1898296;75;21058;-53
2022/12/17 23:07:34;;;;;;;17.55;8.60;;;;;;;8.71;69.85;101786.16;1925060;74;21026;-54
2022/12/17 23:10:03;;;;;;;20.97;10.55;;;;;;;8.67;69.87;101784.48;1921226;74;21182;-54
2022/12/17 23:12:50;;;;;;;19.70;10.28;;;;;;;8.66;69.91;101780.95;1897378;75;21505;-56
2022/12/17 23:15:22;;;;;;;16.60;8.38;;;;;;;8.62;69.86;101778.42;1898365;75;21508;-53
2022/12/17 23:17:52;;;;;;;21.23;10.18;;;;;;;8.56;69.94;101788.98;1898706;74;21570;-54
2022/12/17 23:20:22;;;;;;;24.60;8.93;;;;;;;8.56;69.90;101779.80;1896560;75;21108;-56
2022/12/17 23:22:50;;;;;;;20.52;10.05;;;;;;;8.49;70.01;101783.83;1889957;75;21107;-53
2022/12/17 23:25:19;;;;;;;29.35;10.88;;;;;;;8.48;70.19;101790.41;1884058;74;21144;-55
2022/12/17 23:27:48;;;;;;;23.10;8.95;;;;;;;8.49;70.16;101793.02;1891956;75;21085;-54
2022/12/17 23:30:18;;;;;;;20.68;9.20;;;;;;;8.51;70.19;101794.31;1879823;75;21010;-53
2022/12/17 23:32:46;;;;;;;20.62;7.03;;;;;;;8.50;70.21;101798.70;1893946;74;21488;-54
2022/12/17 23:35:15;;;;;;;31.87;9.18;;;;;;;8.49;70.39;101815.33;1893643;75;20998;-57
2022/12/17 23:37:44;;;;;;;20.80;7.37;;;;;;;8.50;70.34;101807.89;1866344;77;21048;-56
2022/12/17 23:40:13;;;;;;;23.52;8.65;;;;;;;8.48;70.39;101808.36;1869703;75;21048;-53
2022/12/17 23:42:42;;;;;;;35.17;9.03;;;;;;;8.46;70.49;101814.05;1898409;75;21477;-56
2022/12/17 23:45:12;;;;;;;17.48;6.03;;;;;;;8.43;70.70;101820.67;1898691;75;21128;-56
2022/12/17 23:47:41;;;;;;;16.87;6.75;;;;;;;8.50;71.09;101821.02;1871657;75;21004;-57
2022/12/17 23:50:11;;;;;;;17.40;6.45;;;;;;;8.58;70.90;101820.05;1866533;77;21537;-57
2022/12/17 23:52:41;;;;;;;20.52;6.47;;;;;;;8.59;70.75;101821.77;1883205;75;21521;-54
2022/12/17 23:55:10;;;;;;;20.05;6.33;;;;;;;8.59;70.74;101821.77;1898445;75;21556;-52
2022/12/17 23:57:39;;;;;;;13.95;5.67;;;;;;;8.60;70.71;101822.20;1898471;75;21047;-54
